Hamden, Connecticut
Current Conditions -  °F | °C
As of 1:11 AM on Monday 24 Nov 2014 (Local Time) from KMMK Reporting Station
Overcast Overcast  
Wind Chill: 43°   Ceiling: 3500
Heat Index: 43°   Visibility: 7mi
Dew Point: 35°   Wind: 0mph
Humidity: 74%   Direction: NA
Pressure: 30"   Gusts: NA
Location:  41.4°N, 72.9°W
Report Text: KMMK 240611Z AUTO 00000KT 7SM SCT009 BKN035 OVC046 06/02 A3000 RMK AO2 T00610017 TSNO $
Loading
Personal Weather Stations






























Interactive Weather Map New forecast layout! Learn more

10-Day Weather Forecast

Advertisements
Track Severe Weather on mobile